createdAt,value
2022-11-21T00:01:23.768Z,16.50
2022-11-21T00:03:56.291Z,14.60
2022-11-21T00:06:28.842Z,13.50
2022-11-21T00:09:04.027Z,15.10
2022-11-21T00:11:36.499Z,16.20
2022-11-21T00:14:08.897Z,16.00
2022-11-21T00:16:41.259Z,13.90
2022-11-21T00:19:13.578Z,13.60
2022-11-21T00:21:45.804Z,14.20
2022-11-21T00:24:18.044Z,12.00
2022-11-21T00:26:50.565Z,13.30
2022-11-21T00:29:22.926Z,10.10
2022-11-21T00:31:55.486Z,10.10
2022-11-21T00:34:28.114Z,9.80
2022-11-21T00:37:01.299Z,11.30
2022-11-21T00:39:34.413Z,10.90
2022-11-21T00:42:07.443Z,9.40
2022-11-21T00:44:40.635Z,8.80
2022-11-21T00:47:13.409Z,9.20
2022-11-21T00:49:46.195Z,9.20
2022-11-21T00:52:19.891Z,8.20
2022-11-21T00:54:52.455Z,6.70
2022-11-21T00:57:25.267Z,8.00
2022-11-21T00:59:59.312Z,7.60
2022-11-21T01:02:33.201Z,6.60
2022-11-21T01:05:06.585Z,5.20
2022-11-21T01:07:39.167Z,6.30
2022-11-21T01:10:12.799Z,5.80
2022-11-21T01:12:46.023Z,5.40
2022-11-21T01:15:18.860Z,6.90
2022-11-21T01:17:51.155Z,5.90
2022-11-21T01:20:24.676Z,6.00
2022-11-21T01:22:57.020Z,4.30
2022-11-21T01:25:30.214Z,5.70
2022-11-21T01:28:02.976Z,3.50
2022-11-21T01:30:36.129Z,4.50
2022-11-21T01:33:08.774Z,3.50
2022-11-21T01:35:41.374Z,6.30
2022-11-21T01:38:14.266Z,3.00
2022-11-21T01:40:47.710Z,4.10
2022-11-21T01:43:20.456Z,8.40
2022-11-21T01:46:00.612Z,5.30
2022-11-21T01:48:39.188Z,1.20
2022-11-21T01:51:17.595Z,2.60
2022-11-21T01:53:58.388Z,2.10
2022-11-21T01:56:34.707Z,1.20
2022-11-21T01:59:11.238Z,1.50
2022-11-21T02:01:46.654Z,8.50
2022-11-21T02:04:20.885Z,1.30
2022-11-21T02:06:54.459Z,1.50
2022-11-21T02:09:28.467Z,1.30
2022-11-21T02:12:05.862Z,1.30
2022-11-21T02:14:40.359Z,1.50
2022-11-21T02:17:13.146Z,1.80
2022-11-21T02:19:52.010Z,1.20
2022-11-21T02:22:39.368Z,1.60
2022-11-21T02:25:16.381Z,2.00
2022-11-21T02:27:56.743Z,1.40
2022-11-21T02:30:32.898Z,1.30
2022-11-21T02:35:38.343Z,1.70
2022-11-21T02:38:19.830Z,0.70
2022-11-21T02:41:00.494Z,1.30
2022-11-21T02:43:39.809Z,0.90
2022-11-21T02:46:13.004Z,0.80
2022-11-21T02:48:47.837Z,0.60
2022-11-21T02:51:20.720Z,0.80
2022-11-21T02:53:53.773Z,1.00
2022-11-21T02:56:26.666Z,0.60
2022-11-21T02:59:00.515Z,0.50
2022-11-21T03:01:33.139Z,1.20
2022-11-21T03:04:05.902Z,0.40
2022-11-21T03:06:38.540Z,0.20
2022-11-21T03:09:12.847Z,0.60
2022-11-21T03:11:45.669Z,0.10
2022-11-21T03:14:18.796Z,1.20
2022-11-21T03:16:52.797Z,0.40
2022-11-21T03:19:25.577Z,0.70
2022-11-21T03:21:58.586Z,0.60
2022-11-21T03:24:32.535Z,0.60
2022-11-21T03:27:05.690Z,0.70
2022-11-21T03:29:39.383Z,1.40
2022-11-21T03:32:13.766Z,1.30
2022-11-21T03:34:46.680Z,14.10
2022-11-21T03:37:20.216Z,1.60
2022-11-21T03:39:53.264Z,1.40
2022-11-21T03:42:26.079Z,1.00
2022-11-21T03:45:00.534Z,1.00
2022-11-21T03:47:32.886Z,1.00
2022-11-21T03:50:05.644Z,1.10
2022-11-21T03:52:38.355Z,1.80
2022-11-21T03:55:11.871Z,1.60
2022-11-21T03:57:44.545Z,2.20
2022-11-21T04:00:19.769Z,2.40
2022-11-21T04:02:52.207Z,4.40
2022-11-21T04:05:24.869Z,2.90
2022-11-21T04:07:58.216Z,2.90
2022-11-21T04:10:31.874Z,2.90
2022-11-21T04:13:04.643Z,3.80
2022-11-21T04:15:37.748Z,3.00
2022-11-21T04:18:10.608Z,3.40
2022-11-21T04:20:43.743Z,6.30
2022-11-21T04:23:16.403Z,2.40
2022-11-21T04:25:49.799Z,4.00
2022-11-21T04:28:23.818Z,6.70
2022-11-21T04:30:59.344Z,1.70
2022-11-21T04:33:34.173Z,5.20
2022-11-21T04:36:07.144Z,1.90
2022-11-21T04:38:41.119Z,3.20
2022-11-21T04:41:14.584Z,2.60
2022-11-21T04:43:47.822Z,3.90
2022-11-21T04:46:21.048Z,4.20
2022-11-21T04:48:53.611Z,3.20
2022-11-21T04:51:26.247Z,3.20
2022-11-21T04:53:59.379Z,2.40
2022-11-21T04:56:32.165Z,1.70
2022-11-21T04:59:05.113Z,4.70
2022-11-21T05:01:39.155Z,1.50
2022-11-21T05:04:12.546Z,1.90
2022-11-21T05:06:47.146Z,3.70
2022-11-21T05:09:20.640Z,6.30
2022-11-21T05:12:11.193Z,8.10
2022-11-21T05:14:44.061Z,3.30
2022-11-21T05:17:18.903Z,2.80
2022-11-21T05:19:51.938Z,1.70
2022-11-21T05:22:24.386Z,4.30
2022-11-21T05:24:56.878Z,2.20
2022-11-21T05:27:29.695Z,3.60
2022-11-21T05:30:03.301Z,2.00
2022-11-21T05:32:36.703Z,1.90
2022-11-21T05:35:10.474Z,2.80
2022-11-21T05:37:43.542Z,2.00
2022-11-21T05:40:19.171Z,2.20
2022-11-21T05:43:10.819Z,3.90
2022-11-21T05:45:44.140Z,2.40
2022-11-21T05:48:16.514Z,3.00
2022-11-21T05:50:52.427Z,3.10
2022-11-21T05:53:25.003Z,2.40
2022-11-21T05:56:02.498Z,2.30
2022-11-21T05:58:35.606Z,2.40
2022-11-21T06:01:11.763Z,2.10
2022-11-21T06:03:45.543Z,5.50
2022-11-21T06:06:23.624Z,4.10
2022-11-21T06:08:58.051Z,4.10
2022-11-21T06:11:31.568Z,2.60
2022-11-21T06:14:04.455Z,4.30
2022-11-21T06:16:37.351Z,3.80
2022-11-21T06:19:12.351Z,3.10
2022-11-21T06:21:46.559Z,2.70
2022-11-21T06:24:22.320Z,3.50
2022-11-21T06:26:56.593Z,3.40
2022-11-21T06:29:29.075Z,2.60
2022-11-21T06:32:02.247Z,3.00
2022-11-21T06:34:36.573Z,3.80
2022-11-21T06:37:09.536Z,4.40
2022-11-21T06:39:42.266Z,6.60
2022-11-21T06:42:15.475Z,5.10
2022-11-21T06:44:48.013Z,3.20
2022-11-21T06:47:23.402Z,6.40
2022-11-21T06:49:56.215Z,2.70
2022-11-21T06:52:28.896Z,6.20
2022-11-21T06:55:01.844Z,4.20
2022-11-21T06:57:34.203Z,8.20
2022-11-21T07:00:08.322Z,5.20
2022-11-21T07:02:40.606Z,5.40
2022-11-21T07:05:13.151Z,5.10
2022-11-21T07:07:45.625Z,4.30
2022-11-21T07:10:18.144Z,3.60
2022-11-21T07:13:07.804Z,6.80
2022-11-21T07:15:40.281Z,4.90
2022-11-21T07:18:12.710Z,3.40
2022-11-21T07:20:45.034Z,3.30
2022-11-21T07:23:17.296Z,4.80
2022-11-21T07:25:49.599Z,4.70
2022-11-21T07:28:22.455Z,3.90
2022-11-21T07:30:56.817Z,4.40
2022-11-21T07:33:29.603Z,4.80
2022-11-21T07:36:01.925Z,4.00
2022-11-21T07:38:34.244Z,4.10
2022-11-21T07:41:06.523Z,3.50
2022-11-21T07:43:38.829Z,4.60
2022-11-21T07:46:11.056Z,3.50
2022-11-21T07:48:43.288Z,18.60
2022-11-21T07:51:15.569Z,6.40
2022-11-21T07:53:47.831Z,6.00
2022-11-21T07:56:20.062Z,4.20
2022-11-21T07:58:54.712Z,5.80
2022-11-21T08:01:27.153Z,6.70
2022-11-21T08:03:59.526Z,5.80
2022-11-21T08:06:31.779Z,6.20
2022-11-21T08:09:04.597Z,6.50
2022-11-21T08:11:38.867Z,6.70
2022-11-21T08:14:11.153Z,7.00
2022-11-21T08:16:43.361Z,6.70
2022-11-21T08:19:15.688Z,4.10
2022-11-21T08:21:47.917Z,4.80
2022-11-21T08:24:20.240Z,4.50
2022-11-21T08:26:52.983Z,6.40
2022-11-21T08:29:26.456Z,3.40
2022-11-21T08:31:59.046Z,4.70
2022-11-21T08:34:33.758Z,4.00
2022-11-21T08:37:09.951Z,4.50
2022-11-21T08:39:47.146Z,4.50
2022-11-21T08:42:21.839Z,4.70
2022-11-21T08:44:54.179Z,5.40
2022-11-21T08:47:26.583Z,5.70
2022-11-21T08:50:01.982Z,5.30
2022-11-21T08:52:39.340Z,4.70
2022-11-21T08:55:23.478Z,4.50
2022-11-21T08:57:58.084Z,4.30
2022-11-21T09:00:30.612Z,7.60
2022-11-21T09:03:07.353Z,5.40
2022-11-21T09:05:39.619Z,4.40
2022-11-21T09:08:11.980Z,4.70
2022-11-21T09:10:44.610Z,9.00
2022-11-21T09:13:16.919Z,9.00
2022-11-21T09:16:02.945Z,8.30
2022-11-21T09:18:35.182Z,4.80
2022-11-21T09:21:07.491Z,6.10
2022-11-21T09:23:39.881Z,5.60
2022-11-21T09:26:12.726Z,3.60
2022-11-21T09:28:45.043Z,4.80
2022-11-21T09:31:17.415Z,4.40
2022-11-21T09:33:54.620Z,8.20
2022-11-21T09:36:27.617Z,7.20
2022-11-21T09:38:59.918Z,6.70
2022-11-21T09:41:57.157Z,5.90
2022-11-21T09:44:54.186Z,11.00
2022-11-21T09:47:29.380Z,5.40
2022-11-21T09:50:04.051Z,7.80
2022-11-21T09:52:42.690Z,6.20
2022-11-21T09:55:25.133Z,7.20
2022-11-21T09:57:59.066Z,5.50
2022-11-21T10:00:32.020Z,5.70
2022-11-21T10:03:04.568Z,5.90
2022-11-21T10:05:42.828Z,5.40
2022-11-21T10:08:25.445Z,7.00
2022-11-21T10:11:10.236Z,5.20
2022-11-21T10:14:08.377Z,8.40
2022-11-21T10:16:51.517Z,3.90
2022-11-21T10:19:39.766Z,5.70
2022-11-21T10:22:49.602Z,5.10
2022-11-21T10:25:27.555Z,6.80
2022-11-21T10:28:03.978Z,5.60
2022-11-21T10:30:37.064Z,6.80
2022-11-21T10:33:19.573Z,5.60
2022-11-21T10:35:56.762Z,5.00
2022-11-21T10:38:30.566Z,7.00
2022-11-21T10:41:08.823Z,6.50
2022-11-21T10:44:03.238Z,5.20
2022-11-21T10:46:35.527Z,5.30
2022-11-21T10:49:13.686Z,10.90
2022-11-21T10:51:53.041Z,5.80
2022-11-21T10:54:34.523Z,4.90
2022-11-21T10:57:13.645Z,7.20
2022-11-21T11:00:01.007Z,6.40
2022-11-21T11:02:33.264Z,8.50
2022-11-21T11:05:28.939Z,10.90
2022-11-21T11:08:07.133Z,6.80
2022-11-21T11:10:41.562Z,8.40
2022-11-21T11:13:45.828Z,10.60
2022-11-21T11:16:22.666Z,7.30
2022-11-21T11:19:00.174Z,10.20
2022-11-21T11:21:44.327Z,9.30
2022-11-21T11:24:27.952Z,9.90
2022-11-21T11:27:02.899Z,7.40
2022-11-21T11:29:50.757Z,9.70
2022-11-21T11:32:24.001Z,9.00
2022-11-21T11:35:01.571Z,9.60
2022-11-21T11:37:41.009Z,9.90
2022-11-21T11:40:26.968Z,12.40
2022-11-21T11:43:32.638Z,9.50
2022-11-21T11:46:52.737Z,11.00
2022-11-21T11:49:56.070Z,12.30
2022-11-21T11:52:33.136Z,13.00
2022-11-21T11:55:15.922Z,10.90
2022-11-21T11:57:51.819Z,12.50
2022-11-21T12:03:03.465Z,16.70
2022-11-21T12:05:38.615Z,16.90
2022-11-21T12:08:40.937Z,12.20
2022-11-21T12:11:39.744Z,16.30
2022-11-21T12:14:35.587Z,11.70
2022-11-21T12:17:10.325Z,11.50
2022-11-21T12:19:42.592Z,13.40
2022-11-21T12:22:14.837Z,13.90
2022-11-21T12:24:48.089Z,12.30
2022-11-21T12:27:28.630Z,11.20
2022-11-21T12:30:22.001Z,12.80
2022-11-21T12:33:07.911Z,11.20
2022-11-21T12:36:16.329Z,11.20
2022-11-21T12:39:07.107Z,12.90
2022-11-21T12:42:07.572Z,16.30
2022-11-21T12:45:04.798Z,15.00
2022-11-21T12:48:12.562Z,11.20
2022-11-21T12:51:13.048Z,12.70
2022-11-21T12:54:08.078Z,13.60
2022-11-21T12:56:49.813Z,15.60
2022-11-21T12:59:23.594Z,16.20
2022-11-21T13:02:05.128Z,14.00
2022-11-21T13:04:42.018Z,11.20
2022-11-21T13:07:15.487Z,12.60
2022-11-21T13:09:52.070Z,11.70
2022-11-21T13:12:29.824Z,10.70
2022-11-21T13:15:14.794Z,10.10
2022-11-21T13:17:53.681Z,17.30
2022-11-21T13:20:33.570Z,8.90
2022-11-21T13:23:28.793Z,7.80
2022-11-21T13:26:01.067Z,5.50
2022-11-21T13:28:39.540Z,8.10
2022-11-21T13:31:34.541Z,4.20
2022-11-21T13:34:27.920Z,4.20
2022-11-21T13:37:01.263Z,4.40
2022-11-21T13:39:36.292Z,5.20
2022-11-21T13:42:31.600Z,3.60
2022-11-21T13:45:43.954Z,11.20
2022-11-21T13:48:47.127Z,7.80
2022-11-21T13:51:46.140Z,6.70
2022-11-21T13:54:51.075Z,4.30
2022-11-21T13:57:35.613Z,2.60
2022-11-21T14:00:23.435Z,4.30
2022-11-21T14:03:17.069Z,3.70
2022-11-21T14:06:12.168Z,3.30
2022-11-21T14:08:46.438Z,3.30
2022-11-21T14:11:37.902Z,3.30
2022-11-21T14:14:11.879Z,3.30
2022-11-21T14:16:50.191Z,3.00
2022-11-21T14:19:23.322Z,5.20
2022-11-21T14:21:56.363Z,2.90
2022-11-21T14:24:29.273Z,2.70
2022-11-21T14:27:02.125Z,5.20
2022-11-21T14:29:42.927Z,3.10
2022-11-21T14:32:18.678Z,5.10
2022-11-21T14:34:50.950Z,3.80
2022-11-21T14:37:23.887Z,3.90
2022-11-21T14:39:57.940Z,3.90
2022-11-21T14:42:38.865Z,3.20
2022-11-21T14:45:20.283Z,4.10
2022-11-21T14:47:54.284Z,4.10
2022-11-21T14:50:35.094Z,3.90
2022-11-21T14:53:07.733Z,3.50
2022-11-21T14:55:40.232Z,17.00
2022-11-21T14:58:17.749Z,27.90
2022-11-21T15:01:07.847Z,6.40
2022-11-21T15:03:40.219Z,4.50
2022-11-21T15:06:14.277Z,4.00
2022-11-21T15:11:45.127Z,7.20
2022-11-21T15:14:27.891Z,4.80
2022-11-21T15:17:04.248Z,3.20
2022-11-21T15:19:36.731Z,3.30
2022-11-21T15:22:21.663Z,3.40
2022-11-21T15:25:07.193Z,4.50
2022-11-21T15:27:39.576Z,3.30
2022-11-21T15:30:26.404Z,4.30
2022-11-21T15:33:15.904Z,3.50
2022-11-21T15:35:56.932Z,3.90
2022-11-21T15:38:41.700Z,3.20
2022-11-21T15:41:29.477Z,4.70
2022-11-21T15:44:21.404Z,3.90
2022-11-21T15:46:55.575Z,2.90
2022-11-21T15:49:34.849Z,3.50
2022-11-21T15:52:13.549Z,3.70
2022-11-21T15:54:47.176Z,3.60
2022-11-21T15:57:22.151Z,6.30
2022-11-21T15:59:55.289Z,5.30
2022-11-21T16:02:27.542Z,7.20
2022-11-21T16:05:00.088Z,4.30
2022-11-21T16:07:32.628Z,4.30
2022-11-21T16:10:05.249Z,5.90
2022-11-21T16:12:37.561Z,5.40
2022-11-21T16:15:11.667Z,4.60
2022-11-21T16:17:46.062Z,4.00
2022-11-21T16:20:20.341Z,4.00
2022-11-21T16:22:52.637Z,10.10
2022-11-21T16:25:24.915Z,6.00
2022-11-21T16:27:57.280Z,3.50
2022-11-21T16:30:29.585Z,5.00
2022-11-21T16:33:04.385Z,14.10
2022-11-21T16:35:39.342Z,26.90
2022-11-21T16:38:12.504Z,5.30
2022-11-21T16:40:54.226Z,5.00
2022-11-21T16:43:27.759Z,4.60
2022-11-21T16:46:10.236Z,4.50
2022-11-21T16:48:42.738Z,4.50
2022-11-21T16:51:18.113Z,5.70
2022-11-21T16:53:52.203Z,4.10
2022-11-21T16:56:24.519Z,6.20
2022-11-21T16:58:56.902Z,4.40
2022-11-21T17:01:29.644Z,5.80
2022-11-21T17:04:02.276Z,7.00
2022-11-21T17:06:34.684Z,10.70
2022-11-21T17:09:07.160Z,7.50
2022-11-21T17:11:39.565Z,6.40
2022-11-21T17:14:14.529Z,10.60
2022-11-21T17:16:48.991Z,11.50
2022-11-21T17:19:21.292Z,7.80
2022-11-21T17:21:53.706Z,7.30
2022-11-21T17:24:26.770Z,8.90
2022-11-21T17:27:01.239Z,8.60
2022-11-21T17:29:33.702Z,8.20
2022-11-21T17:32:06.142Z,9.20
2022-11-21T17:34:38.846Z,8.10
2022-11-21T17:37:11.615Z,7.80
2022-11-21T17:39:44.054Z,8.30
2022-11-21T17:42:16.805Z,10.70
2022-11-21T17:44:49.726Z,8.20
2022-11-21T17:47:22.022Z,8.30
2022-11-21T17:49:54.424Z,11.00
2022-11-21T17:52:26.820Z,9.40
2022-11-21T17:54:59.110Z,13.80
2022-11-21T17:57:31.510Z,8.80
2022-11-21T18:00:03.980Z,9.30
2022-11-21T18:02:36.473Z,9.10
2022-11-21T18:05:09.306Z,8.10
2022-11-21T18:07:42.061Z,9.50
2022-11-21T18:10:41.472Z,7.30
2022-11-21T18:13:07.380Z,10.00
2022-11-21T18:15:39.736Z,7.60
2022-11-21T18:18:12.160Z,7.70
2022-11-21T18:20:44.534Z,9.00
2022-11-21T18:23:16.858Z,9.00
2022-11-21T18:25:49.238Z,9.70
2022-11-21T18:28:21.870Z,7.00
2022-11-21T18:30:54.217Z,9.60
2022-11-21T18:33:26.491Z,7.90
2022-11-21T18:35:58.899Z,8.60
2022-11-21T18:38:48.486Z,9.50
2022-11-21T18:41:24.434Z,14.80
2022-11-21T18:43:58.402Z,8.90
2022-11-21T18:46:32.693Z,8.00
2022-11-21T18:49:07.244Z,9.20
2022-11-21T18:51:40.595Z,10.40
2022-11-21T18:54:13.217Z,9.20
2022-11-21T18:56:45.461Z,10.50
2022-11-21T18:59:17.728Z,8.90
2022-11-21T19:01:50.899Z,8.60
2022-11-21T19:04:23.692Z,11.10
2022-11-21T19:06:56.355Z,11.00
2022-11-21T19:09:32.525Z,10.30
2022-11-21T19:12:05.245Z,11.10
2022-11-21T19:14:37.630Z,8.90
2022-11-21T19:17:09.955Z,9.10
2022-11-21T19:19:42.268Z,13.20
2022-11-21T19:22:14.613Z,13.40
2022-11-21T19:24:48.098Z,12.00
2022-11-21T19:27:24.401Z,11.10
2022-11-21T19:29:56.683Z,9.80
2022-11-21T19:32:30.963Z,11.00
2022-11-21T19:35:03.233Z,22.80
2022-11-21T19:37:35.555Z,9.60
2022-11-21T19:40:11.286Z,12.40
2022-11-21T19:45:15.072Z,12.70
2022-11-21T19:47:48.045Z,13.50
2022-11-21T19:50:20.532Z,14.50
2022-11-21T19:52:52.970Z,11.90
2022-11-21T19:55:26.100Z,12.50
2022-11-21T19:57:58.346Z,9.70
2022-11-21T20:00:30.617Z,11.90
2022-11-21T20:03:02.963Z,13.30
2022-11-21T20:05:35.376Z,13.30
2022-11-21T20:08:15.303Z,14.70
2022-11-21T20:10:50.203Z,12.30
2022-11-21T20:13:22.587Z,15.10
2022-11-21T20:15:54.964Z,12.60
2022-11-21T20:18:28.823Z,14.80
2022-11-21T20:21:07.810Z,13.80
2022-11-21T20:23:40.198Z,13.60
2022-11-21T20:26:13.083Z,14.00
2022-11-21T20:28:45.535Z,17.20
2022-11-21T20:31:20.100Z,12.80
2022-11-21T20:33:54.150Z,16.10
2022-11-21T20:36:29.704Z,16.90
2022-11-21T20:39:04.393Z,16.60
2022-11-21T20:41:37.934Z,15.90
2022-11-21T20:47:07.298Z,18.20
2022-11-21T20:49:39.706Z,12.70
2022-11-21T20:55:04.899Z,14.90
2022-11-21T20:57:37.270Z,15.90
2022-11-21T21:00:12.841Z,18.20
2022-11-21T21:02:45.183Z,16.60
2022-11-21T21:05:17.721Z,20.90
2022-11-21T21:07:50.038Z,17.90
2022-11-21T21:10:25.480Z,18.30
2022-11-21T21:12:58.286Z,19.40
2022-11-21T21:15:30.630Z,16.50
2022-11-21T21:18:02.882Z,26.70
2022-11-21T21:20:49.279Z,15.70
2022-11-21T21:23:27.481Z,19.30
2022-11-21T21:26:07.793Z,19.20
2022-11-21T21:28:40.348Z,18.30
2022-11-21T21:31:15.162Z,18.70
2022-11-21T21:33:47.799Z,16.40
2022-11-21T21:36:22.498Z,19.00
2022-11-21T21:38:56.082Z,19.60
2022-11-21T21:41:30.379Z,19.60
2022-11-21T21:44:02.672Z,16.90
2022-11-21T21:46:34.903Z,20.10
2022-11-21T21:49:07.270Z,18.30
2022-11-21T21:51:40.332Z,17.80
2022-11-21T21:54:19.011Z,21.50
2022-11-21T21:56:51.365Z,19.40
2022-11-21T21:59:23.599Z,21.20
2022-11-21T22:01:55.929Z,19.30
2022-11-21T22:04:28.799Z,17.40
2022-11-21T22:07:01.523Z,17.20
2022-11-21T22:09:33.830Z,18.20
2022-11-21T22:12:06.659Z,19.30
2022-11-21T22:14:38.969Z,17.00
2022-11-21T22:17:11.196Z,17.00
2022-11-21T22:19:43.419Z,19.60
2022-11-21T22:22:15.779Z,19.30
2022-11-21T22:24:48.016Z,20.20
2022-11-21T22:27:20.383Z,20.50
2022-11-21T22:29:52.589Z,17.90
2022-11-21T22:32:24.840Z,21.20
2022-11-21T22:34:57.046Z,19.90
2022-11-21T22:37:29.280Z,21.20
2022-11-21T22:40:01.662Z,19.20
2022-11-21T22:42:33.916Z,16.60
2022-11-21T22:45:06.763Z,19.20
2022-11-21T22:47:42.357Z,20.90
2022-11-21T22:50:18.164Z,18.00
2022-11-21T22:52:50.446Z,19.30
2022-11-21T22:55:22.711Z,18.40
2022-11-21T22:57:55.152Z,21.00
2022-11-21T23:00:27.452Z,24.10
2022-11-21T23:03:01.417Z,19.40
2022-11-21T23:05:33.670Z,22.30
2022-11-21T23:08:06.343Z,18.90
2022-11-21T23:10:39.691Z,21.10
2022-11-21T23:13:12.066Z,21.80
2022-11-21T23:15:44.294Z,25.30
2022-11-21T23:18:17.024Z,23.40
2022-11-21T23:20:49.430Z,21.60
2022-11-21T23:23:21.699Z,20.80
2022-11-21T23:25:54.294Z,22.00
2022-11-21T23:28:26.637Z,20.40
2022-11-21T23:30:59.385Z,21.80
2022-11-21T23:33:31.819Z,19.00
2022-11-21T23:36:04.220Z,20.80
2022-11-21T23:38:36.450Z,26.40
2022-11-21T23:41:08.691Z,21.00
2022-11-21T23:43:40.947Z,23.30
2022-11-21T23:46:13.314Z,21.40
2022-11-21T23:48:45.544Z,20.60
2022-11-21T23:51:17.817Z,22.30
2022-11-21T23:53:50.050Z,22.00
2022-11-21T23:56:22.364Z,24.60
2022-11-21T23:58:54.625Z,21.80
